Kasagimaru — JJ3905 — position and weather

sailwx.info

Track history (hours):
 
Tides and Currents Weather Stations Pressure Air Temp Water Temp Dewpoint Dewpoint Depression Visibility Wind Speed Wind Dir Waves Ship Positions

Kasagimaru

Last reported at 2015-May-25 06:33 UTC. Time now 2015-May-25 07:34 UTC.
Position N 34°33' E 135°27'.

Length 42 m; draft 3.5 m.

Type: Tug. MMSI: 431300268.

Date/timePositionNaut miles runAvg speedWind from/ knotsBaromVisibWave heightAir tempDewpointWater temp
2015-May-25 06:33N 34°33' E 135°27'3 3.5
2015-May-25 05:33N 34°31' E 135°23'0 0.2
2015-May-25 04:28N 34°31' E 135°23'0 0.0
2015-May-25 03:17N 34°31' E 135°23'0 0.0
2015-May-25 02:32N 34°31' E 135°23'0 0.0
2015-May-25 01:32N 34°31' E 135°23'3 2.8
2015-May-25 00:33N 34°33' E 135°23'2 2.4
2015-May-24 23:33N 34°33' E 135°26'1 0.7
2015-May-24 22:23N 34°33' E 135°27'0 0.0
2015-May-24 17:14N 34°33' E 135°27'0 0.0
2015-May-24 16:32N 34°33' E 135°27'0 0.0
2015-May-24 15:30N 34°33' E 135°27'0 0.0
2015-May-24 14:28N 34°33' E 135°27'0 0.0
2015-May-24 13:33N 34°33' E 135°27'0 0.0
2015-May-24 12:33N 34°33' E 135°27'0 0.0
2015-May-24 11:32N 34°33' E 135°27'0 0.0
2015-May-24 10:33N 34°33' E 135°27'0 0.0
2015-May-24 09:12N 34°33' E 135°27'0 0.0
2015-May-24 08:13N 34°33' E 135°27'0 0.0
2015-May-24 07:28N 34°33' E 135°27'0 0.0
2015-May-24 06:29N 34°33' E 135°27'0 0.0
2015-May-24 02:27N 34°33' E 135°27'0 0.0
2015-May-24 01:32N 34°33' E 135°27'0 0.0
2015-May-23 23:22N 34°33' E 135°27'1 0.8
2015-May-23 22:33N 34°34' E 135°26'1 0.1
2015-May-23 13:08N 34°33' E 135°27'0 0.0
2015-May-23 12:30N 34°33' E 135°27'0 0.0
2015-May-23 11:32N 34°33' E 135°27'0 0.0
2015-May-23 10:24N 34°33' E 135°27'0 0.0
2015-May-23 09:31N 34°33' E 135°27'0 0.0
2015-May-23 08:23N 34°33' E 135°27'0 0.0
2015-May-23 07:33N 34°33' E 135°27'1 0.6
2015-May-23 06:32N 34°33' E 135°26'4 4.1
2015-May-23 05:33N 34°37' E 135°25'1 1.2
2015-May-23 04:33N 34°37' E 135°23'4 4.3
2015-May-23 03:32N 34°33' E 135°26'0 0.5
2015-May-23 02:32N 34°33' E 135°27'0 0.0
2015-May-23 01:29N 34°33' E 135°27'0 0.0
2015-May-23 00:28N 34°33' E 135°27'0 0.0
2015-May-22 23:29N 34°33' E 135°27'0 0.0
2015-May-22 22:33N 34°33' E 135°27'0 0.0
2015-May-22 21:32N 34°33' E 135°27'0 0.0
2015-May-22 19:32N 34°33' E 135°27'0 0.0
2015-May-22 16:32N 34°33' E 135°27'0 0.0
2015-May-22 15:33N 34°33' E 135°27'0 0.0
2015-May-22 14:33N 34°33' E 135°27'0 0.0
2015-May-22 13:33N 34°33' E 135°27'0 0.0
2015-May-22 12:32N 34°33' E 135°27'0 0.0
2015-May-22 11:32N 34°33' E 135°27'0 0.0
2015-May-22 10:33N 34°33' E 135°27'0 0.0
2015-May-22 09:32N 34°33' E 135°27'0 0.0
2015-May-22 08:33N 34°33' E 135°27'0 0.0
2015-May-22 07:33N 34°33' E 135°27'0 0.0
2015-May-22 06:33N 34°33' E 135°27'0 0.0
2015-May-22 05:33N 34°33' E 135°27'0 0.0
2015-May-22 04:30N 34°33' E 135°27'3 3.0
2015-May-22 03:33N 34°33' E 135°23'1 0.9
2015-May-22 02:32N 34°33' E 135°24'0 0.0
2015-May-22 01:33N 34°33' E 135°24'0 0.0
2015-May-22 00:33N 34°33' E 135°24'0 0.2
2015-May-21 23:29N 34°33' E 135°24'0 0.2
2015-May-21 22:33N 34°33' E 135°24'0 0.1
2015-May-21 21:33N 34°33' E 135°24'0 0.1
2015-May-21 20:25N 34°33' E 135°24'0 0.1
2015-May-21 19:14N 34°33' E 135°24'0 0.1
2015-May-21 18:27N 34°33' E 135°24'0 0.0
2015-May-21 17:32N 34°33' E 135°24'0 0.1
2015-May-21 16:31N 34°33' E 135°24'0 0.0
2015-May-21 15:33N 34°33' E 135°24'0 0.0
2015-May-21 14:30N 34°33' E 135°24'0 0.1
2015-May-21 13:32N 34°33' E 135°24'0 0.1
2015-May-21 12:32N 34°33' E 135°24'0 0.1
2015-May-21 11:33N 34°33' E 135°24'0 0.1
2015-May-21 10:32N 34°33' E 135°24'0 0.2
2015-May-21 09:33N 34°33' E 135°24'0 0.0
2015-May-21 08:33N 34°33' E 135°24'0 0.1
2015-May-21 07:33N 34°33' E 135°24'0 0.0
2015-May-21 06:33N 34°33' E 135°24'0 0.0
2015-May-21 05:33N 34°33' E 135°24'0 0.1
2015-May-21 04:33N 34°33' E 135°24'0 0.3
2015-May-21 03:32N 34°33' E 135°24'0 0.2
2015-May-21 02:33N 34°33' E 135°24'6 6.0
2015-May-21 01:33N 34°32' E 135°17'3 2.6
2015-May-21 00:33N 34°32' E 135°20'5 5.4
2015-May-20 23:33N 34°33' E 135°26'0 0.3
2015-May-20 22:27N 34°33' E 135°27'0 0.0
2015-May-20 21:33N 34°33' E 135°27'0 0.0
2015-May-20 19:33N 34°33' E 135°27'0 0.0
2015-May-20 18:27N 34°33' E 135°27'0 0.0
2015-May-20 17:16N 34°33' E 135°27'0 0.0
2015-May-20 16:33N 34°33' E 135°27'0 0.0
2015-May-20 15:33N 34°33' E 135°27'0 0.0
2015-May-20 14:15N 34°33' E 135°27'0 0.0
2015-May-20 13:20N 34°33' E 135°27'0 0.0
2015-May-20 12:12N 34°33' E 135°27'0 0.0
2015-May-20 11:27N 34°33' E 135°27'0 0.0
2015-May-20 09:10N 34°33' E 135°27'0 0.0
2015-May-20 06:33N 34°33' E 135°27'0 0.0
2015-May-20 05:32N 34°33' E 135°27'0 0.0
2015-May-20 04:33N 34°33' E 135°27'0 0.0
2015-May-20 03:33N 34°33' E 135°27'0 0.0
2015-May-20 02:12N 34°33' E 135°27'0 0.0
2015-May-20 01:33N 34°33' E 135°27'0 0.0
2015-May-20 00:23N 34°33' E 135°27'0 0.0
2015-May-19 23:21N 34°33' E 135°27'0 0.0
2015-May-19 22:33N 34°33' E 135°27'0 0.0
2015-May-19 21:32N 34°33' E 135°27'0 0.0
2015-May-19 20:32N 34°33' E 135°27'0 0.0
2015-May-19 19:33N 34°33' E 135°27'0 0.0
2015-May-19 18:33N 34°33' E 135°27'0 0.0
2015-May-19 17:33N 34°33' E 135°27'0 0.0
2015-May-19 16:33N 34°33' E 135°27'0 0.0
2015-May-19 15:33N 34°33' E 135°27'0 0.0
2015-May-19 14:33N 34°33' E 135°27'0 0.0
2015-May-19 13:33N 34°33' E 135°27'0 0.0
2015-May-19 12:33N 34°33' E 135°27'0 0.0
2015-May-19 11:33N 34°33' E 135°27'0 0.0
2015-May-19 08:23N 34°33' E 135°27'0 0.0
2015-May-19 07:32N 34°33' E 135°27'0 0.0
2015-May-19 06:33N 34°33' E 135°27'0 0.0
2015-May-19 05:32N 34°33' E 135°27'0 0.0
2015-May-19 04:32N 34°33' E 135°27'2 0.9
2015-May-19 02:24N 34°34' E 135°24'3 4.0
2015-May-19 01:32N 34°33' E 135°20'5 5.0
2015-May-19 00:33N 34°33' E 135°26'1 0.0
2015-May-18 08:32N 34°33' E 135°27'3 2.6
2015-May-18 07:32N 34°33' E 135°23'2 1.7
2015-May-18 06:33N 34°33' E 135°26'1 0.9
2015-May-18 05:32N 34°33' E 135°27'0 0.0
2015-May-18 04:33N 34°33' E 135°27'0 0.0
2015-May-17 22:33N 34°33' E 135°27'0 0.0
2015-May-17 21:33N 34°33' E 135°27'0 0.0
2015-May-17 20:33N 34°33' E 135°27'0 0.0
2015-May-17 15:28N 34°33' E 135°27'0 0.0
2015-May-17 13:30N 34°33' E 135°27'0 0.0
2015-May-17 12:13N 34°33' E 135°27'0 0.0
2015-May-17 11:31N 34°33' E 135°27'2 1.6
2015-May-17 10:33N 34°33' E 135°25'2 2.1
2015-May-17 09:30N 34°31' E 135°24'0 0.0
2015-May-17 08:07N 34°31' E 135°24'0 0.0
2015-May-17 07:33N 34°31' E 135°24'2 1.6
2015-May-17 06:33N 34°33' E 135°25'1 0.8
2015-May-17 05:33N 34°33' E 135°25'3 3.3
2015-May-17 04:33N 34°34' E 135°21'1 0.6
2015-May-17 03:33N 34°34' E 135°22'2 2.4
2015-May-17 02:33N 34°33' E 135°24'2 2.0
2015-May-17 01:33N 34°33' E 135°27'0 0.0
2015-May-17 00:33N 34°33' E 135°27'0 0.0
2015-May-16 23:33N 34°33' E 135°27'0 0.0
2015-May-16 22:33N 34°33' E 135°27'0 0.0
2015-May-16 21:33N 34°33' E 135°27'0 0.0
2015-May-16 20:33N 34°33' E 135°27'0 0.0
2015-May-16 19:33N 34°33' E 135°27'0 0.0
2015-May-16 18:33N 34°33' E 135°27'0 0.0
2015-May-16 17:32N 34°33' E 135°27'0 0.0
2015-May-16 16:33N 34°33' E 135°27'0 0.0
2015-May-16 15:33N 34°33' E 135°27'0 0.0
2015-May-16 14:33N 34°33' E 135°27'0 0.0
2015-May-16 13:33N 34°33' E 135°27'0 0.0
2015-May-16 12:33N 34°33' E 135°27'0 0.0
2015-May-16 11:33N 34°33' E 135°27'0 0.0
2015-May-16 10:33N 34°33' E 135°27'0 0.0
2015-May-16 09:33N 34°33' E 135°27'0 0.0
2015-May-16 08:33N 34°33' E 135°27'0 0.0
2015-May-16 07:33N 34°33' E 135°27'0 0.0
2015-May-16 06:33N 34°33' E 135°27'0 0.0
2015-May-16 05:22N 34°33' E 135°27'2 2.4
2015-May-16 04:33N 34°33' E 135°24'0 0.1
2015-May-16 03:33N 34°33' E 135°24'3 2.9
2015-May-16 02:29N 34°33' E 135°20'1111.3
2015-May-16 01:33N 34°27' E 135°10'1512.7
2015-May-16 00:23N 34°15' E 134°60'5 5.3
2015-May-15 23:28N 34°10' E 135°00'1010.6
2015-May-15 22:33N 34°19' E 135°04'1212.2
2015-May-15 21:33N 34°26' E 135°17'7 0.6
2015-May-15 09:18N 34°31' E 135°24'1 1.4
2015-May-15 08:27N 34°32' E 135°24'0 0.5
2015-May-15 07:31N 34°31' E 135°24'  
Track history (hours):
 
Tides and Currents Weather Stations Pressure Air Temp Water Temp Dewpoint Dewpoint Depression Visibility Wind Speed Wind Dir Waves Ship Positions

Kasagimaru

Last reported at 2015-May-25 06:33 UTC. Time now 2015-May-25 07:34 UTC.
Position N 34°33' E 135°27'.

Length 42 m; draft 3.5 m.

Type: Tug. MMSI: 431300268.

Date/timePositionNaut miles runAvg speedWind from/ knotsBaromVisibWave heightAir tempDewpointWater temp
2015-May-25 06:33N 34°33' E 135°27'3 3.5
2015-May-25 05:33N 34°31' E 135°23'0 0.2
2015-May-25 04:28N 34°31' E 135°23'0 0.0
2015-May-25 03:17N 34°31' E 135°23'0 0.0
2015-May-25 02:32N 34°31' E 135°23'0 0.0
2015-May-25 01:32N 34°31' E 135°23'3 2.8
2015-May-25 00:33N 34°33' E 135°23'2 2.4
2015-May-24 23:33N 34°33' E 135°26'1 0.7
2015-May-24 22:23N 34°33' E 135°27'0 0.0
2015-May-24 17:14N 34°33' E 135°27'0 0.0
2015-May-24 16:32N 34°33' E 135°27'0 0.0
2015-May-24 15:30N 34°33' E 135°27'0 0.0
2015-May-24 14:28N 34°33' E 135°27'0 0.0
2015-May-24 13:33N 34°33' E 135°27'0 0.0
2015-May-24 12:33N 34°33' E 135°27'0 0.0
2015-May-24 11:32N 34°33' E 135°27'0 0.0
2015-May-24 10:33N 34°33' E 135°27'0 0.0
2015-May-24 09:12N 34°33' E 135°27'0 0.0
2015-May-24 08:13N 34°33' E 135°27'0 0.0
2015-May-24 07:28N 34°33' E 135°27'0 0.0
2015-May-24 06:29N 34°33' E 135°27'0 0.0
2015-May-24 02:27N 34°33' E 135°27'0 0.0
2015-May-24 01:32N 34°33' E 135°27'0 0.0
2015-May-23 23:22N 34°33' E 135°27'1 0.8
2015-May-23 22:33N 34°34' E 135°26'1 0.1
2015-May-23 13:08N 34°33' E 135°27'0 0.0
2015-May-23 12:30N 34°33' E 135°27'0 0.0
2015-May-23 11:32N 34°33' E 135°27'0 0.0
2015-May-23 10:24N 34°33' E 135°27'0 0.0
2015-May-23 09:31N 34°33' E 135°27'0 0.0
2015-May-23 08:23N 34°33' E 135°27'0 0.0
2015-May-23 07:33N 34°33' E 135°27'1 0.6
2015-May-23 06:32N 34°33' E 135°26'4 4.1
2015-May-23 05:33N 34°37' E 135°25'1 1.2
2015-May-23 04:33N 34°37' E 135°23'4 4.3
2015-May-23 03:32N 34°33' E 135°26'0 0.5
2015-May-23 02:32N 34°33' E 135°27'0 0.0
2015-May-23 01:29N 34°33' E 135°27'0 0.0
2015-May-23 00:28N 34°33' E 135°27'0 0.0
2015-May-22 23:29N 34°33' E 135°27'0 0.0
2015-May-22 22:33N 34°33' E 135°27'0 0.0
2015-May-22 21:32N 34°33' E 135°27'0 0.0
2015-May-22 19:32N 34°33' E 135°27'0 0.0
2015-May-22 16:32N 34°33' E 135°27'0 0.0
2015-May-22 15:33N 34°33' E 135°27'0 0.0
2015-May-22 14:33N 34°33' E 135°27'0 0.0
2015-May-22 13:33N 34°33' E 135°27'0 0.0
2015-May-22 12:32N 34°33' E 135°27'0 0.0
2015-May-22 11:32N 34°33' E 135°27'0 0.0
2015-May-22 10:33N 34°33' E 135°27'0 0.0
2015-May-22 09:32N 34°33' E 135°27'0 0.0
2015-May-22 08:33N 34°33' E 135°27'0 0.0
2015-May-22 07:33N 34°33' E 135°27'0 0.0
2015-May-22 06:33N 34°33' E 135°27'0 0.0
2015-May-22 05:33N 34°33' E 135°27'0 0.0
2015-May-22 04:30N 34°33' E 135°27'3 3.0
2015-May-22 03:33N 34°33' E 135°23'1 0.9
2015-May-22 02:32N 34°33' E 135°24'0 0.0
2015-May-22 01:33N 34°33' E 135°24'0 0.0
2015-May-22 00:33N 34°33' E 135°24'0 0.2
2015-May-21 23:29N 34°33' E 135°24'0 0.2
2015-May-21 22:33N 34°33' E 135°24'0 0.1
2015-May-21 21:33N 34°33' E 135°24'0 0.1
2015-May-21 20:25N 34°33' E 135°24'0 0.1
2015-May-21 19:14N 34°33' E 135°24'0 0.1
2015-May-21 18:27N 34°33' E 135°24'0 0.0
2015-May-21 17:32N 34°33' E 135°24'0 0.1
2015-May-21 16:31N 34°33' E 135°24'0 0.0
2015-May-21 15:33N 34°33' E 135°24'0 0.0
2015-May-21 14:30N 34°33' E 135°24'0 0.1
2015-May-21 13:32N 34°33' E 135°24'0 0.1
2015-May-21 12:32N 34°33' E 135°24'0 0.1
2015-May-21 11:33N 34°33' E 135°24'0 0.1
2015-May-21 10:32N 34°33' E 135°24'0 0.2
2015-May-21 09:33N 34°33' E 135°24'0 0.0
2015-May-21 08:33N 34°33' E 135°24'0 0.1
2015-May-21 07:33N 34°33' E 135°24'0 0.0
2015-May-21 06:33N 34°33' E 135°24'0 0.0
2015-May-21 05:33N 34°33' E 135°24'0 0.1
2015-May-21 04:33N 34°33' E 135°24'0 0.3
2015-May-21 03:32N 34°33' E 135°24'0 0.2
2015-May-21 02:33N 34°33' E 135°24'6 6.0
2015-May-21 01:33N 34°32' E 135°17'3 2.6
2015-May-21 00:33N 34°32' E 135°20'5 5.4
2015-May-20 23:33N 34°33' E 135°26'0 0.3
2015-May-20 22:27N 34°33' E 135°27'0 0.0
2015-May-20 21:33N 34°33' E 135°27'0 0.0
2015-May-20 19:33N 34°33' E 135°27'0 0.0
2015-May-20 18:27N 34°33' E 135°27'0 0.0
2015-May-20 17:16N 34°33' E 135°27'0 0.0
2015-May-20 16:33N 34°33' E 135°27'0 0.0
2015-May-20 15:33N 34°33' E 135°27'0 0.0
2015-May-20 14:15N 34°33' E 135°27'0 0.0
2015-May-20 13:20N 34°33' E 135°27'0 0.0
2015-May-20 12:12N 34°33' E 135°27'0 0.0
2015-May-20 11:27N 34°33' E 135°27'0 0.0
2015-May-20 09:10N 34°33' E 135°27'0 0.0
2015-May-20 06:33N 34°33' E 135°27'0 0.0
2015-May-20 05:32N 34°33' E 135°27'0 0.0
2015-May-20 04:33N 34°33' E 135°27'0 0.0
2015-May-20 03:33N 34°33' E 135°27'0 0.0
2015-May-20 02:12N 34°33' E 135°27'0 0.0
2015-May-20 01:33N 34°33' E 135°27'0 0.0
2015-May-20 00:23N 34°33' E 135°27'0 0.0
2015-May-19 23:21N 34°33' E 135°27'0 0.0
2015-May-19 22:33N 34°33' E 135°27'0 0.0
2015-May-19 21:32N 34°33' E 135°27'0 0.0
2015-May-19 20:32N 34°33' E 135°27'0 0.0
2015-May-19 19:33N 34°33' E 135°27'0 0.0
2015-May-19 18:33N 34°33' E 135°27'0 0.0
2015-May-19 17:33N 34°33' E 135°27'0 0.0
2015-May-19 16:33N 34°33' E 135°27'0 0.0
2015-May-19 15:33N 34°33' E 135°27'0 0.0
2015-May-19 14:33N 34°33' E 135°27'0 0.0
2015-May-19 13:33N 34°33' E 135°27'0 0.0
2015-May-19 12:33N 34°33' E 135°27'0 0.0
2015-May-19 11:33N 34°33' E 135°27'0 0.0
2015-May-19 08:23N 34°33' E 135°27'0 0.0
2015-May-19 07:32N 34°33' E 135°27'0 0.0
2015-May-19 06:33N 34°33' E 135°27'0 0.0
2015-May-19 05:32N 34°33' E 135°27'0 0.0
2015-May-19 04:32N 34°33' E 135°27'2 0.9
2015-May-19 02:24N 34°34' E 135°24'3 4.0
2015-May-19 01:32N 34°33' E 135°20'5 5.0
2015-May-19 00:33N 34°33' E 135°26'1 0.0
2015-May-18 08:32N 34°33' E 135°27'3 2.6
2015-May-18 07:32N 34°33' E 135°23'2 1.7
2015-May-18 06:33N 34°33' E 135°26'1 0.9
2015-May-18 05:32N 34°33' E 135°27'0 0.0
2015-May-18 04:33N 34°33' E 135°27'0 0.0
2015-May-17 22:33N 34°33' E 135°27'0 0.0
2015-May-17 21:33N 34°33' E 135°27'0 0.0
2015-May-17 20:33N 34°33' E 135°27'0 0.0
2015-May-17 15:28N 34°33' E 135°27'0 0.0
2015-May-17 13:30N 34°33' E 135°27'0 0.0
2015-May-17 12:13N 34°33' E 135°27'0 0.0
2015-May-17 11:31N 34°33' E 135°27'2 1.6
2015-May-17 10:33N 34°33' E 135°25'2 2.1
2015-May-17 09:30N 34°31' E 135°24'0 0.0
2015-May-17 08:07N 34°31' E 135°24'0 0.0
2015-May-17 07:33N 34°31' E 135°24'2 1.6
2015-May-17 06:33N 34°33' E 135°25'1 0.8
2015-May-17 05:33N 34°33' E 135°25'3 3.3
2015-May-17 04:33N 34°34' E 135°21'1 0.6
2015-May-17 03:33N 34°34' E 135°22'2 2.4
2015-May-17 02:33N 34°33' E 135°24'2 2.0
2015-May-17 01:33N 34°33' E 135°27'0 0.0
2015-May-17 00:33N 34°33' E 135°27'0 0.0
2015-May-16 23:33N 34°33' E 135°27'0 0.0
2015-May-16 22:33N 34°33' E 135°27'0 0.0
2015-May-16 21:33N 34°33' E 135°27'0 0.0
2015-May-16 20:33N 34°33' E 135°27'0 0.0
2015-May-16 19:33N 34°33' E 135°27'0 0.0
2015-May-16 18:33N 34°33' E 135°27'0 0.0
2015-May-16 17:32N 34°33' E 135°27'0 0.0
2015-May-16 16:33N 34°33' E 135°27'0 0.0
2015-May-16 15:33N 34°33' E 135°27'0 0.0
2015-May-16 14:33N 34°33' E 135°27'0 0.0
2015-May-16 13:33N 34°33' E 135°27'0 0.0
2015-May-16 12:33N 34°33' E 135°27'0 0.0
2015-May-16 11:33N 34°33' E 135°27'0 0.0
2015-May-16 10:33N 34°33' E 135°27'0 0.0
2015-May-16 09:33N 34°33' E 135°27'0 0.0
2015-May-16 08:33N 34°33' E 135°27'0 0.0
2015-May-16 07:33N 34°33' E 135°27'0 0.0
2015-May-16 06:33N 34°33' E 135°27'0 0.0
2015-May-16 05:22N 34°33' E 135°27'2 2.4
2015-May-16 04:33N 34°33' E 135°24'0 0.1
2015-May-16 03:33N 34°33' E 135°24'3 2.9
2015-May-16 02:29N 34°33' E 135°20'1111.3
2015-May-16 01:33N 34°27' E 135°10'1512.7
2015-May-16 00:23N 34°15' E 134°60'5 5.3
2015-May-15 23:28N 34°10' E 135°00'1010.6
2015-May-15 22:33N 34°19' E 135°04'1212.2
2015-May-15 21:33N 34°26' E 135°17'7 0.6
2015-May-15 09:18N 34°31' E 135°24'1 1.4
2015-May-15 08:27N 34°32' E 135°24'0 0.5
2015-May-15 07:31N 34°31' E 135°24'  

Dump ship's entire track history